Time;durP1;ratioP1;P1;durP2;ratioP2;P2;SDS_P1;SDS_P2;PMS_P1;PMS_P2;Temp;Humidity;BMP_temperature;BMP_pressure;BME280_temperature;BME280_humidity;BME280_pressure;Samples;Min_cycle;Max_cycle;Signal;HPM_P1;HPM_P2
2021/10/24 00:00:09;;;;;;;14.97;6.77;;;7.10;91.50;;;;;;4965988;29;20457;-76
2021/10/24 00:02:37;;;;;;;14.13;6.77;;;7.10;91.50;;;;;;4953847;29;20256;-79
2021/10/24 00:05:07;;;;;;;13.37;6.77;;;7.00;91.50;;;;;;4953975;29;20429;-78
2021/10/24 00:07:33;;;;;;;10.53;7.20;;;7.00;91.60;;;;;;4952333;29;20309;-79
2021/10/24 00:09:59;;;;;;;15.23;7.53;;;7.00;91.70;;;;;;4936874;29;20452;-78
2021/10/24 00:12:24;;;;;;;18.40;6.73;;;6.90;92.10;;;;;;4953656;29;20240;-78
2021/10/24 00:14:50;;;;;;;7.20;5.70;;;6.90;91.80;;;;;;4936912;29;20184;-78
2021/10/24 00:17:16;;;;;;;14.57;6.23;;;6.90;91.90;;;;;;4936766;29;20633;-78
2021/10/24 00:19:42;;;;;;;11.37;6.43;;;6.90;92.00;;;;;;4953478;29;20288;-78
2021/10/24 00:22:08;;;;;;;9.00;5.40;;;6.80;92.00;;;;;;4952987;29;20467;-78
2021/10/24 00:24:34;;;;;;;17.07;7.03;;;6.80;92.10;;;;;;4954174;29;20897;-78
2021/10/24 00:27:00;;;;;;;8.57;5.20;;;6.80;92.00;;;;;;4953510;29;20632;-78
2021/10/24 00:29:27;;;;;;;8.30;6.17;;;6.80;92.00;;;;;;4951689;29;20417;-78
2021/10/24 00:31:52;;;;;;;15.37;6.80;;;6.80;91.90;;;;;;4952297;29;20416;-78
2021/10/24 00:34:18;;;;;;;10.23;6.40;;;6.70;92.00;;;;;;4936052;29;20954;-77
2021/10/24 00:36:43;;;;;;;9.50;5.97;;;6.70;91.90;;;;;;4935752;29;20690;-77
2021/10/24 00:39:10;;;;;;;9.00;5.13;;;6.70;92.00;;;;;;4953619;29;20199;-79
2021/10/24 00:41:36;;;;;;;9.93;5.93;;;6.70;92.10;;;;;;4952158;29;20591;-78
2021/10/24 00:44:24;;;;;;;12.00;5.50;;;6.70;92.10;;;;;;4953609;29;20685;-78
2021/10/24 00:46:54;;;;;;;10.40;6.10;;;6.70;92.10;;;;;;4954964;28;20166;-79
2021/10/24 00:49:20;;;;;;;11.30;6.93;;;6.60;92.50;;;;;;4940412;29;20827;-78
2021/10/24 00:51:46;;;;;;;8.60;6.80;;;6.60;92.10;;;;;;4957557;29;20401;-77
2021/10/24 00:54:13;;;;;;;14.50;6.97;;;6.60;92.10;;;;;;4956468;29;20413;-77
2021/10/24 00:56:40;;;;;;;11.07;6.70;;;6.60;92.20;;;;;;4941251;29;20432;-79
2021/10/24 00:59:08;;;;;;;10.50;6.30;;;6.60;92.20;;;;;;4940148;29;20452;-78
2021/10/24 01:01:34;;;;;;;13.47;6.70;;;6.60;92.30;;;;;;4955386;29;20417;-78
2021/10/24 01:04:01;;;;;;;11.33;7.33;;;6.50;92.20;;;;;;4923327;29;20910;-78
2021/10/24 01:06:27;;;;;;;9.97;6.47;;;6.50;92.30;;;;;;4955272;29;20420;-78
2021/10/24 01:08:54;;;;;;;18.47;9.07;;;6.50;92.40;;;;;;4956580;29;20756;-78
2021/10/24 01:11:20;;;;;;;10.90;6.80;;;6.50;92.30;;;;;;4938250;29;20455;-77
2021/10/24 01:13:46;;;;;;;10.53;6.20;;;6.50;92.40;;;;;;4956019;29;20413;-77
2021/10/24 01:16:16;;;;;;;9.87;6.57;;;6.50;92.50;;;;;;4938727;29;20416;-77
2021/10/24 01:18:44;;;;;;;14.43;7.53;;;6.50;92.50;;;;;;4954337;29;20218;-77
2021/10/24 01:21:12;;;;;;;15.53;8.63;;;6.50;92.60;;;;;;4954011;29;20405;-78
2021/10/24 01:23:37;;;;;;;12.37;7.90;;;6.40;92.50;;;;;;4939006;29;20424;-77
2021/10/24 01:26:05;;;;;;;10.40;7.13;;;6.40;92.50;;;;;;4939191;29;20795;-76
2021/10/24 01:28:31;;;;;;;19.77;8.03;;;6.40;92.70;;;;;;4955861;29;20185;-77
2021/10/24 01:30:58;;;;;;;10.87;6.53;;;6.40;92.70;;;;;;4955923;29;20456;-77
2021/10/24 01:33:24;;;;;;;12.17;7.30;;;6.40;92.80;;;;;;4941773;29;20425;-78
2021/10/24 01:35:55;;;;;;;10.20;7.20;;;6.40;92.70;;;;;;4940674;29;20444;-76
2021/10/24 01:38:22;;;;;;;12.07;6.03;;;6.50;92.70;;;;;;4954343;29;20205;-77
2021/10/24 01:40:48;;;;;;;8.17;6.00;;;6.50;92.60;;;;;;4938067;29;20502;-77
2021/10/24 01:43:14;;;;;;;14.00;7.27;;;6.50;92.50;;;;;;4938494;29;20417;-77
2021/10/24 01:45:40;;;;;;;11.30;7.50;;;6.50;92.30;;;;;;4938658;29;20424;-77
2021/10/24 01:48:14;;;;;;;9.40;6.63;;;6.50;92.20;;;;;;4938637;29;20216;-77
2021/10/24 01:50:40;;;;;;;8.43;6.00;;;6.50;92.20;;;;;;4957375;29;20409;-77
2021/10/24 01:53:08;;;;;;;14.90;6.87;;;6.50;92.20;;;;;;4971192;29;20424;-77
2021/10/24 01:55:34;;;;;;;16.47;7.93;;;6.50;92.10;;;;;;4972162;29;20425;-79
2021/10/24 01:58:01;;;;;;;11.37;5.57;;;6.50;92.50;;;;;;4961482;28;20193;-77
2021/10/24 02:00:29;;;;;;;9.13;6.13;;;6.40;92.00;;;;;;4953067;29;20495;-77
2021/10/24 02:02:55;;;;;;;12.50;6.33;;;6.40;92.00;;;;;;4953034;29;20424;-77
2021/10/24 02:05:32;;;;;;;9.63;5.83;;;6.40;92.00;;;;;;4937900;29;20436;-77
2021/10/24 02:07:57;;;;;;;13.93;8.80;;;6.30;92.20;;;;;;4954777;29;20464;-77
2021/10/24 02:10:23;;;;;;;12.93;5.97;;;6.30;92.10;;;;;;4937408;29;20193;-77
2021/10/24 02:12:50;;;;;;;7.90;6.00;;;6.30;92.10;;;;;;4952838;29;20524;-77
2021/10/24 02:15:21;;;;;;;8.60;6.40;;;6.20;92.10;;;;;;4956674;29;20761;-76
2021/10/24 02:17:47;;;;;;;11.10;5.63;;;6.20;92.00;;;;;;4953689;29;20493;-77
2021/10/24 02:20:15;;;;;;;9.90;5.83;;;6.20;92.00;;;;;;4938024;29;20483;-77
2021/10/24 02:22:44;;;;;;;8.23;5.63;;;6.10;92.00;;;;;;4937612;29;20441;-77
2021/10/24 02:25:18;;;;;;;11.70;6.63;;;6.10;92.00;;;;;;4937407;29;20413;-77
2021/10/24 02:27:45;;;;;;;8.27;5.43;;;6.10;92.20;;;;;;4954856;29;20785;-77
2021/10/24 02:30:12;;;;;;;12.93;6.47;;;6.10;92.10;;;;;;4952583;29;20405;-77
2021/10/24 02:32:39;;;;;;;12.10;5.73;;;6.10;92.20;;;;;;4953429;29;20413;-77
2021/10/24 02:35:09;;;;;;;11.10;5.97;;;6.10;92.20;;;;;;4938421;29;20791;-77
2021/10/24 02:37:44;;;;;;;12.73;6.20;;;6.00;92.20;;;;;;4955082;29;20891;-77
2021/10/24 02:40:14;;;;;;;11.90;6.70;;;6.00;92.30;;;;;;4937402;29;20452;-77
2021/10/24 02:42:43;;;;;;;11.37;5.77;;;6.00;92.30;;;;;;4953248;29;20420;-78
2021/10/24 02:45:09;;;;;;;7.00;5.17;;;6.00;92.20;;;;;;4937576;29;20413;-77
2021/10/24 02:47:36;;;;;;;10.10;6.30;;;5.90;92.30;;;;;;4955050;29;20188;-79
2021/10/24 02:50:05;;;;;;;9.13;5.90;;;5.90;92.40;;;;;;4953597;29;20448;-77
2021/10/24 02:52:31;;;;;;;10.23;5.83;;;5.90;92.50;;;;;;4937183;29;20404;-78
2021/10/24 02:54:58;;;;;;;16.03;5.57;;;5.90;92.50;;;;;;4953191;29;20413;-79
2021/10/24 02:57:25;;;;;;;9.10;4.57;;;5.90;92.50;;;;;;4953087;29;20440;-78
2021/10/24 02:59:51;;;;;;;11.40;5.40;;;5.80;92.60;;;;;;4953249;29;20563;-78
2021/10/24 03:02:17;;;;;;;11.57;6.67;;;5.80;92.70;;;;;;4951779;29;20165;-78
2021/10/24 03:04:43;;;;;;;10.17;5.77;;;5.80;92.90;;;;;;4936961;29;20180;-77
2021/10/24 03:07:08;;;;;;;10.97;5.97;;;5.70;92.90;;;;;;4953779;29;20188;-78
2021/10/24 03:09:35;;;;;;;8.33;6.10;;;5.70;93.00;;;;;;4953662;28;20169;-77
2021/10/24 03:12:03;;;;;;;13.70;5.37;;;5.70;93.10;;;;;;4936037;29;20826;-77
2021/10/24 03:14:29;;;;;;;10.47;5.70;;;5.70;93.20;;;;;;4936695;29;20475;-78
2021/10/24 03:16:56;;;;;;;11.17;6.80;;;5.70;93.30;;;;;;4953246;29;20421;-78
2021/10/24 03:19:23;;;;;;;13.37;6.40;;;5.70;93.40;;;;;;4936755;29;20471;-78
2021/10/24 03:21:54;;;;;;;21.73;6.50;;;5.70;93.40;;;;;;4936447;29;20169;-77
2021/10/24 03:24:20;;;;;;;13.17;6.93;;;5.70;93.40;;;;;;4954002;29;20423;-78
2021/10/24 03:26:46;;;;;;;9.90;6.80;;;5.70;93.60;;;;;;4952878;29;20409;-78
2021/10/24 03:29:14;;;;;;;11.13;6.20;;;5.70;93.70;;;;;;4952215;29;20413;-77
2021/10/24 03:31:40;;;;;;;8.13;5.07;;;5.70;93.70;;;;;;4952714;29;20486;-76
2021/10/24 03:34:06;;;;;;;11.57;7.80;;;5.70;93.60;;;;;;4951951;29;20184;-77
2021/10/24 03:36:33;;;;;;;8.63;5.87;;;5.70;93.70;;;;;;4936166;29;20413;-77
2021/10/24 03:38:58;;;;;;;11.33;5.90;;;5.70;93.80;;;;;;4951477;29;20985;-77
2021/10/24 03:41:25;;;;;;;12.83;6.27;;;5.70;93.80;;;;;;4920332;29;20169;-78
2021/10/24 03:43:51;;;;;;;10.10;5.10;;;5.60;93.70;;;;;;4936755;29;20949;-78
2021/10/24 03:46:16;;;;;;;10.63;5.73;;;5.60;93.80;;;;;;4953060;29;20228;-77
2021/10/24 03:48:42;;;;;;;9.93;7.13;;;5.60;93.90;;;;;;4952288;29;20201;-78
2021/10/24 03:51:08;;;;;;;11.77;6.80;;;5.60;93.80;;;;;;4936227;29;20173;-78
2021/10/24 03:53:34;;;;;;;10.40;5.60;;;5.60;93.80;;;;;;4936801;29;20184;-77
2021/10/24 03:55:59;;;;;;;11.80;6.97;;;5.60;93.90;;;;;;4920852;29;20202;-78
2021/10/24 03:58:26;;;;;;;15.60;6.50;;;5.60;93.90;;;;;;4936241;29;20209;-78
2021/10/24 04:00:52;;;;;;;11.73;7.50;;;5.60;93.90;;;;;;4952219;29;20405;-77
2021/10/24 04:03:24;;;;;;;10.97;6.60;;;5.60;93.80;;;;;;4952607;29;20413;-78
2021/10/24 04:05:50;;;;;;;10.50;6.00;;;5.60;93.90;;;;;;4936713;29;20990;-78
2021/10/24 04:08:17;;;;;;;10.50;7.37;;;5.60;93.90;;;;;;4936169;29;20232;-78
2021/10/24 04:10:44;;;;;;;9.57;6.23;;;5.50;94.00;;;;;;4953234;29;20429;-78
2021/10/24 04:13:10;;;;;;;11.53;8.03;;;5.50;94.00;;;;;;4936538;29;20428;-78
2021/10/24 04:15:37;;;;;;;12.37;6.87;;;5.50;94.10;;;;;;4920923;29;20965;-78
2021/10/24 04:18:14;;;;;;;10.37;6.27;;;5.50;94.10;;;;;;4952422;29;20437;-78
2021/10/24 04:20:42;;;;;;;12.00;6.40;;;5.50;94.10;;;;;;4952254;28;20424;-77
2021/10/24 04:23:09;;;;;;;14.40;7.60;;;5.50;94.10;;;;;;4940069;29;20444;-77
2021/10/24 04:25:35;;;;;;;14.03;6.60;;;5.50;94.10;;;;;;4957330;29;20495;-78
2021/10/24 04:28:02;;;;;;;13.07;7.00;;;5.50;94.10;;;;;;4939764;29;20437;-77
2021/10/24 04:30:28;;;;;;;14.30;7.07;;;5.50;94.20;;;;;;4956762;29;20419;-78
2021/10/24 04:32:53;;;;;;;12.20;7.50;;;5.50;94.30;;;;;;4939356;29;20424;-77
2021/10/24 04:35:19;;;;;;;12.93;7.07;;;5.50;94.20;;;;;;4955595;29;20184;-77
2021/10/24 04:37:45;;;;;;;9.90;7.20;;;5.50;94.20;;;;;;4955639;29;20524;-77
2021/10/24 04:40:11;;;;;;;10.23;6.47;;;5.50;94.30;;;;;;4955989;29;20678;-77
2021/10/24 04:42:49;;;;;;;10.20;6.00;;;5.50;94.20;;;;;;4955037;29;20373;-77
2021/10/24 04:45:15;;;;;;;9.33;6.17;;;5.50;94.20;;;;;;4956566;29;20416;-77
2021/10/24 04:47:41;;;;;;;11.83;7.70;;;5.50;94.30;;;;;;4939237;29;20199;-77
2021/10/24 04:50:08;;;;;;;9.37;5.90;;;5.50;94.30;;;;;;4955193;29;20236;-77
2021/10/24 04:52:37;;;;;;;11.90;6.17;;;5.50;94.40;;;;;;4938705;29;20417;-78
2021/10/24 04:55:07;;;;;;;9.37;5.90;;;5.50;94.40;;;;;;4955698;29;20421;-78
2021/10/24 04:57:33;;;;;;;16.07;7.07;;;5.50;94.30;;;;;;4939916;29;20843;-77
2021/10/24 05:00:04;;;;;;;17.77;7.30;;;5.50;94.30;;;;;;4955292;29;20484;-77
2021/10/24 05:02:30;;;;;;;7.53;5.90;;;5.40;94.30;;;;;;4938956;29;20421;-77
2021/10/24 05:04:56;;;;;;;11.10;6.53;;;5.40;94.30;;;;;;4939620;29;20436;-77
2021/10/24 05:07:22;;;;;;;12.20;6.00;;;5.40;94.30;;;;;;4939215;29;20220;-77
2021/10/24 05:09:48;;;;;;;11.87;5.53;;;5.30;94.30;;;;;;4955083;29;20181;-77
2021/10/24 05:12:13;;;;;;;10.50;6.10;;;5.30;94.30;;;;;;4954896;29;20771;-78
2021/10/24 05:14:39;;;;;;;11.03;6.10;;;5.30;94.30;;;;;;4922889;29;20184;-76
2021/10/24 05:17:05;;;;;;;10.33;4.97;;;5.20;94.30;;;;;;4938504;29;20209;-77
2021/10/24 05:19:31;;;;;;;9.50;6.20;;;5.20;94.50;;;;;;4938870;29;20204;-77
2021/10/24 05:21:57;;;;;;;9.70;6.13;;;5.20;94.60;;;;;;4954712;29;20423;-76
2021/10/24 05:24:23;;;;;;;15.00;5.73;;;5.20;94.60;;;;;;4940571;29;20165;-76
2021/10/24 05:26:49;;;;;;;8.47;7.00;;;5.10;94.50;;;;;;4965932;29;20412;-76
2021/10/24 05:29:15;;;;;;;12.40;6.97;;;5.10;94.70;;;;;;4958679;29;20204;-77
2021/10/24 05:31:42;;;;;;;8.97;6.00;;;5.10;94.70;;;;;;4972211;28;20176;-77
2021/10/24 05:34:15;;;;;;;15.00;5.30;;;5.10;94.70;;;;;;4954963;29;20413;-78
2021/10/24 05:36:59;;;;;;;11.47;6.13;;;5.10;94.80;;;;;;4941037;29;21044;-77
2021/10/24 05:39:25;;;;;;;10.90;6.90;;;5.00;94.80;;;;;;4954192;29;20465;-78
2021/10/24 05:41:50;;;;;;;14.30;7.03;;;5.00;94.80;;;;;;4954065;29;20169;-77
2021/10/24 05:44:19;;;;;;;9.03;5.80;;;5.00;95.00;;;;;;4938194;29;20173;-76
2021/10/24 05:46:49;;;;;;;10.23;5.87;;;5.00;95.00;;;;;;4938390;29;20417;-77
2021/10/24 05:49:16;;;;;;;24.20;6.30;;;5.00;95.10;;;;;;4948212;29;20451;-76
2021/10/24 05:51:49;;;;;;;8.27;5.47;;;5.00;95.10;;;;;;4951648;29;20169;-76
2021/10/24 05:54:19;;;;;;;10.90;6.17;;;5.00;95.00;;;;;;4942254;29;20950;-77
2021/10/24 05:56:44;;;;;;;11.30;6.53;;;5.00;95.00;;;;;;4953427;29;20428;-77
2021/10/24 05:59:14;;;;;;;8.60;5.53;;;5.00;95.00;;;;;;4922128;29;20221;-77
2021/10/24 06:01:45;;;;;;;10.67;5.43;;;5.00;94.90;;;;;;4954665;29;20737;-76
2021/10/24 06:04:30;;;;;;;10.63;5.97;;;5.00;94.80;;;;;;4955357;29;20419;-77
2021/10/24 06:07:25;;;;;;;12.20;5.63;;;5.00;94.80;;;;;;4947945;29;20441;-76
2021/10/24 06:09:55;;;;;;;10.27;5.73;;;4.90;94.70;;;;;;4937594;29;20433;-76
2021/10/24 06:15:00;;;;;;;10.83;6.00;;;4.90;94.80;;;;;;4954873;29;20490;-78
2021/10/24 06:17:25;;;;;;;11.13;6.53;;;4.90;94.80;;;;;;4953795;29;21028;-77
2021/10/24 06:19:51;;;;;;;11.30;6.60;;;4.90;94.80;;;;;;4954885;29;20566;-77
2021/10/24 06:22:17;;;;;;;8.80;6.37;;;4.90;94.70;;;;;;4939327;29;20169;-77
2021/10/24 06:24:43;;;;;;;15.70;7.27;;;4.90;94.80;;;;;;4923219;29;20181;-77
2021/10/24 06:27:11;;;;;;;15.10;5.60;;;4.90;94.80;;;;;;4954330;29;20523;-76
2021/10/24 06:29:37;;;;;;;14.63;8.17;;;4.90;94.80;;;;;;4954962;29;20444;-77
2021/10/24 06:32:06;;;;;;;10.50;6.50;;;5.00;94.80;;;;;;4937320;29;20207;-77
2021/10/24 06:34:50;;;;;;;18.47;6.27;;;5.00;94.60;;;;;;4954933;29;20408;-77
2021/10/24 06:37:26;;;;;;;10.93;6.00;;;5.00;94.60;;;;;;4953535;29;20447;-77
2021/10/24 06:39:58;;;;;;;11.77;5.60;;;5.00;94.40;;;;;;4937476;29;20567;-79
2021/10/24 06:42:25;;;;;;;11.00;5.70;;;5.00;94.40;;;;;;4953557;29;20497;-76
2021/10/24 06:45:09;;;;;;;13.70;6.00;;;5.00;94.40;;;;;;4954748;28;20747;-77
2021/10/24 06:47:54;;;;;;;12.93;6.27;;;5.00;94.30;;;;;;4954965;29;20472;-77
2021/10/24 06:50:38;;;;;;;11.27;6.90;;;5.00;94.30;;;;;;4954512;29;20444;-77
2021/10/24 06:53:38;;;;;;;11.50;5.43;;;5.00;94.40;;;;;;4953977;29;20445;-77
2021/10/24 06:56:22;;;;;;;10.70;5.53;;;5.10;94.30;;;;;;4954439;29;20522;-78
2021/10/24 06:59:17;;;;;;;9.93;5.70;;;5.20;94.30;;;;;;4918149;29;20469;-77
2021/10/24 07:02:02;;;;;;;8.30;5.60;;;5.20;94.00;;;;;;4954147;29;20391;-76
2021/10/24 07:04:57;;;;;;;9.27;5.77;;;5.20;93.80;;;;;;4951517;29;20468;-77
2021/10/24 07:07:28;;;;;;;8.80;5.70;;;5.30;93.70;;;;;;4952862;29;20443;-77
2021/10/24 07:10:02;;;;;;;10.80;5.67;;;5.30;93.80;;;;;;4936611;29;20728;-77
2021/10/24 07:12:28;;;;;;;8.20;5.40;;;5.30;93.30;;;;;;4952596;29;20412;-77
2021/10/24 07:14:54;;;;;;;9.67;6.47;;;5.40;93.30;;;;;;4953095;29;20785;-78
2021/10/24 07:17:20;;;;;;;8.43;4.77;;;5.40;93.20;;;;;;4936245;29;20965;-78
2021/10/24 07:19:46;;;;;;;8.93;5.17;;;5.50;93.00;;;;;;4936202;29;20491;-76
2021/10/24 07:22:14;;;;;;;12.00;5.90;;;5.50;93.00;;;;;;4936507;29;20195;-77
2021/10/24 07:24:58;;;;;;;7.10;4.70;;;5.80;93.40;;;;;;4939197;29;20429;-77
2021/10/24 07:27:26;;;;;;;10.60;5.10;;;6.10;91.40;;;;;;4936327;29;20515;-77
2021/10/24 07:29:52;;;;;;;9.13;4.33;;;6.10;91.00;;;;;;4940855;28;20420;-77
2021/10/24 07:32:18;;;;;;;8.20;4.53;;;6.10;90.80;;;;;;4956182;28;20168;-77
2021/10/24 07:34:47;;;;;;;10.40;5.50;;;6.10;91.00;;;;;;4971946;28;20203;-77
2021/10/24 07:37:14;;;;;;;10.53;4.70;;;6.10;90.80;;;;;;4971873;28;20826;-78
2021/10/24 07:39:41;;;;;;;11.80;5.10;;;6.20;90.60;;;;;;4971912;28;20458;-78
2021/10/24 07:42:10;;;;;;;9.13;5.60;;;6.10;90.30;;;;;;4971621;28;20424;-76
2021/10/24 07:44:37;;;;;;;7.20;4.97;;;6.10;90.30;;;;;;4985052;28;20805;-81
2021/10/24 07:47:03;;;;;;;12.10;5.20;;;6.20;90.30;;;;;;4993973;28;20439;-82
2021/10/24 07:49:29;;;;;;;7.43;4.50;;;6.20;90.30;;;;;;4994441;28;20482;-76
2021/10/24 07:51:59;;;;;;;9.60;5.03;;;6.20;90.20;;;;;;4995341;28;20503;-80
2021/10/24 07:54:25;;;;;;;10.37;4.90;;;6.30;90.10;;;;;;4966344;28;20431;-78
2021/10/24 07:56:52;;;;;;;12.00;5.30;;;6.30;90.50;;;;;;4976898;28;20938;-77
2021/10/24 07:59:27;;;;;;;6.97;4.47;;;6.40;89.60;;;;;;4965531;28;21003;-77
2021/10/24 08:01:53;;;;;;;6.17;4.60;;;6.50;89.40;;;;;;4995002;28;20461;-77
2021/10/24 08:04:20;;;;;;;8.50;5.17;;;6.50;88.90;;;;;;4969925;28;20656;-77
2021/10/24 08:06:46;;;;;;;8.47;4.50;;;6.60;88.90;;;;;;4983050;28;20419;-77
2021/10/24 08:09:14;;;;;;;11.67;4.23;;;6.70;88.30;;;;;;4978094;28;20172;-77
2021/10/24 08:11:45;;;;;;;9.93;4.60;;;6.80;88.10;;;;;;4974627;28;20945;-77
2021/10/24 08:14:11;;;;;;;6.33;3.90;;;6.80;87.50;;;;;;4959045;28;20418;-78
2021/10/24 08:16:38;;;;;;;7.90;4.47;;;6.90;87.50;;;;;;4975088;28;20420;-78
2021/10/24 08:19:06;;;;;;;7.40;3.70;;;7.00;87.10;;;;;;4975407;28;20475;-77
2021/10/24 08:21:38;;;;;;;12.20;4.80;;;7.20;86.00;;;;;;4976046;28;20438;-78
2021/10/24 08:24:05;;;;;;;10.50;5.40;;;7.40;84.00;;;;;;4969993;28;20467;-79
2021/10/24 08:26:35;;;;;;;10.47;4.27;;;7.50;84.20;;;;;;4972275;28;20543;-78
2021/10/24 08:29:01;;;;;;;7.13;4.00;;;7.60;83.40;;;;;;4984029;28;20731;-77
2021/10/24 08:31:52;;;;;;;7.70;4.00;;;7.70;83.10;;;;;;4973892;28;20435;-78
2021/10/24 08:34:20;;;;;;;9.60;3.57;;;7.70;82.20;;;;;;4981804;28;20423;-77
2021/10/24 08:36:46;;;;;;;9.43;4.07;;;7.80;81.50;;;;;;4996157;28;20466;-78
2021/10/24 08:39:12;;;;;;;7.03;3.70;;;7.90;81.40;;;;;;4995346;28;20465;-76
2021/10/24 08:41:41;;;;;;;8.10;3.80;;;8.20;80.50;;;;;;4976120;28;20423;-77
2021/10/24 08:44:07;;;;;;;6.77;3.70;;;8.30;80.30;;;;;;4957672;28;20218;-79
2021/10/24 08:46:33;;;;;;;6.43;3.97;;;9.20;80.30;;;;;;4975404;28;20396;-77
2021/10/24 08:49:00;;;;;;;5.40;3.60;;;10.80;74.00;;;;;;4958161;28;20547;-77
2021/10/24 08:51:27;;;;;;;7.50;3.57;;;12.20;64.70;;;;;;4975744;28;20423;-79
2021/10/24 08:53:53;;;;;;;3.97;3.20;;;13.60;61.40;;;;;;4975465;28;20462;-77
2021/10/24 08:56:22;;;;;;;4.83;3.20;;;14.70;57.30;;;;;;4975776;28;20436;-78
2021/10/24 08:58:49;;;;;;;5.17;3.30;;;15.70;54.50;;;;;;4968224;28;20535;-77
2021/10/24 09:01:15;;;;;;;5.40;4.00;;;16.30;51.40;;;;;;4980763;28;20483;-77
2021/10/24 09:04:04;;;;;;;5.87;3.60;;;16.90;50.60;;;;;;4989172;28;20503;-77
2021/10/24 09:06:48;;;;;;;4.93;2.50;;;17.50;49.20;;;;;;4989177;28;20455;-78
2021/10/24 09:09:19;;;;;;;6.00;2.93;;;17.40;46.60;;;;;;4965404;28;20428;-78
2021/10/24 09:12:04;;;;;;;5.70;3.33;;;17.70;46.40;;;;;;4979275;28;20403;-77
2021/10/24 09:15:36;;;;;;;4.40;3.00;;;17.80;44.20;;;;;;4988591;28;20462;-84
2021/10/24 09:18:51;;;;;;;4.03;2.33;;;17.30;45.70;;;;;;4935284;28;20958;-84
2021/10/24 09:21:30;;;;;;;5.73;3.43;;;17.60;45.40;;;;;;4963160;28;20425;-84
2021/10/24 09:24:10;;;;;;;5.57;2.90;;;18.00;43.70;;;;;;4948104;29;20406;-85
2021/10/24 09:26:41;;;;;;;3.93;3.53;;;17.90;43.40;;;;;;4939732;28;20515;-84
2021/10/24 09:29:16;;;;;;;5.30;2.97;;;17.80;43.40;;;;;;4984227;28;20929;-83
2021/10/24 09:31:59;;;;;;;4.37;2.83;;;17.70;43.50;;;;;;4974452;28;20519;-84
2021/10/24 09:35:01;;;;;;;6.30;3.00;;;17.90;43.40;;;;;;4991441;28;20404;-82
2021/10/24 09:38:33;;;;;;;;;;;;;;;;;;;;;
2021/10/24 09:41:35;;;;;;;8.63;3.80;;;17.60;43.30;;;;;;4946765;29;20440;-84
2021/10/24 09:44:19;;;;;;;4.30;2.70;;;17.70;43.00;;;;;;4954085;29;20461;-84
2021/10/24 09:47:02;;;;;;;7.00;3.13;;;17.20;43.80;;;;;;4952474;29;20426;-84
2021/10/24 09:49:30;;;;;;;8.20;3.73;;;17.20;44.30;;;;;;4962111;29;20403;-84
2021/10/24 09:52:29;;;;;;;7.17;3.30;;;17.40;43.90;;;;;;4936298;29;20814;-84
2021/10/24 09:55:14;;;;;;;5.00;3.50;;;17.30;43.30;;;;;;4960768;28;20419;-84
2021/10/24 10:00:57;;;;;;;8.77;3.33;;;16.80;44.60;;;;;;4985681;28;20459;-83
2021/10/24 10:03:37;;;;;;;4.50;3.90;;;17.10;44.10;;;;;;4984116;28;20412;-84
2021/10/24 10:06:14;;;;;;;4.47;3.00;;;17.20;43.90;;;;;;4982710;28;20424;-85
2021/10/24 10:08:43;;;;;;;7.70;3.30;;;17.20;43.50;;;;;;4990805;23;20786;-83
2021/10/24 10:11:21;;;;;;;8.70;5.17;;;16.70;45.10;;;;;;4993767;28;20430;-81
2021/10/24 10:13:54;;;;;;;6.17;3.00;;;16.60;44.80;;;;;;4968758;28;20195;-84
2021/10/24 10:16:27;;;;;;;5.70;3.57;;;16.40;45.00;;;;;;4982865;28;20428;-82
2021/10/24 10:18:56;;;;;;;9.10;2.80;;;15.90;45.40;;;;;;4983776;28;20459;-81
2021/10/24 10:21:30;;;;;;;4.90;2.73;;;15.20;47.00;;;;;;4983665;28;20420;-82
2021/10/24 10:23:56;;;;;;;5.40;2.60;;;14.80;48.10;;;;;;4981154;28;20448;-81
2021/10/24 10:26:32;;;;;;;4.30;2.37;;;14.50;48.50;;;;;;4994298;28;20434;-82
2021/10/24 10:28:59;;;;;;;6.20;2.73;;;14.00;49.50;;;;;;4981803;28;20486;-80
2021/10/24 10:31:24;;;;;;;30.67;17.63;;;13.70;49.90;;;;;;4982624;28;20416;-82
2021/10/24 10:34:11;;;;;;;7.30;2.50;;;13.40;51.80;;;;;;4992455;28;20424;-80
2021/10/24 10:36:49;;;;;;;4.37;2.60;;;13.10;52.00;;;;;;4982352;28;20180;-81
2021/10/24 10:39:36;;;;;;;5.43;2.90;;;12.80;52.80;;;;;;4965384;28;20536;-80
2021/10/24 10:42:23;;;;;;;5.00;3.30;;;12.60;53.70;;;;;;4963480;28;20424;-81
2021/10/24 10:45:13;;;;;;;5.87;2.43;;;12.50;54.00;;;;;;4986842;28;20420;-80
2021/10/24 10:47:57;;;;;;;5.43;2.80;;;12.40;54.90;;;;;;4998309;28;20423;-82
2021/10/24 10:50:28;;;;;;;5.53;2.93;;;12.40;54.70;;;;;;4982767;28;20813;-81
2021/10/24 10:52:55;;;;;;;4.40;2.27;;;12.30;55.30;;;;;;4984889;28;20423;-81
2021/10/24 10:55:22;;;;;;;3.93;2.40;;;12.30;55.70;;;;;;4951324;28;20568;-83
2021/10/24 10:57:47;;;;;;;2.93;2.50;;;12.20;55.80;;;;;;4983103;28;20416;-82
2021/10/24 11:00:35;;;;;;;5.27;3.07;;;12.20;56.30;;;;;;4965961;28;20467;-81
2021/10/24 11:03:01;;;;;;;4.60;2.43;;;12.20;56.50;;;;;;4997281;28;20169;-82
2021/10/24 11:05:37;;;;;;;5.23;2.50;;;12.30;56.50;;;;;;4981758;28;20480;-80
2021/10/24 11:08:03;;;;;;;3.50;2.27;;;12.30;56.20;;;;;;4981627;28;20446;-82
2021/10/24 11:10:44;;;;;;;3.90;2.90;;;12.20;56.10;;;;;;4982523;28;20482;-82
2021/10/24 11:13:28;;;;;;;3.03;1.97;;;12.20;56.20;;;;;;4984854;28;20180;-83
2021/10/24 11:15:55;;;;;;;9.63;2.53;;;12.20;56.20;;;;;;4998660;28;20443;-82
2021/10/24 11:18:34;;;;;;;5.17;2.37;;;12.20;56.10;;;;;;4983309;28;20404;-80
2021/10/24 11:21:01;;;;;;;7.47;2.30;;;12.30;56.10;;;;;;4966359;28;20443;-82
2021/10/24 11:23:30;;;;;;;5.50;2.90;;;12.30;55.80;;;;;;4998299;28;20472;-82
2021/10/24 11:25:58;;;;;;;3.97;1.83;;;12.40;55.90;;;;;;4983285;28;20977;-80
2021/10/24 11:28:28;;;;;;;4.50;2.50;;;12.30;55.90;;;;;;4998309;28;20420;-82
2021/10/24 11:31:04;;;;;;;8.53;2.27;;;12.40;55.60;;;;;;4985264;28;20424;-82
2021/10/24 11:33:50;;;;;;;5.40;2.13;;;12.40;55.00;;;;;;5001427;28;20415;-81
2021/10/24 11:36:25;;;;;;;5.73;2.03;;;12.40;55.00;;;;;;4982018;28;20411;-80
2021/10/24 11:38:59;;;;;;;6.30;2.03;;;12.50;54.70;;;;;;4963745;28;20629;-82
2021/10/24 11:41:26;;;;;;;6.20;2.17;;;12.50;54.40;;;;;;4996421;28;20483;-81
2021/10/24 11:44:04;;;;;;;2.73;1.63;;;12.60;54.40;;;;;;4997901;28;20403;-81
2021/10/24 11:46:30;;;;;;;3.77;1.77;;;12.60;54.10;;;;;;4981798;28;20483;-81
2021/10/24 11:49:01;;;;;;;8.30;2.00;;;12.70;53.90;;;;;;4997137;28;20940;-81
2021/10/24 11:51:28;;;;;;;4.23;2.00;;;12.70;53.80;;;;;;4981477;28;20238;-84
2021/10/24 11:53:54;;;;;;;4.20;1.97;;;12.70;53.60;;;;;;4997135;28;20423;-83
2021/10/24 12:01:26;;;;;;;3.03;1.70;;;12.80;53.30;;;;;;4996580;28;20416;-82
2021/10/24 12:03:56;;;;;;;3.80;2.40;;;12.80;52.90;;;;;;4981746;28;20423;-82
2021/10/24 12:06:47;;;;;;;4.73;2.07;;;12.80;52.80;;;;;;4964053;28;20506;-81
2021/10/24 12:09:14;;;;;;;3.80;2.40;;;12.90;52.80;;;;;;4981512;28;20448;-81
2021/10/24 12:11:46;;;;;;;6.10;2.30;;;12.90;53.00;;;;;;4980968;28;20786;-82
2021/10/24 12:14:13;;;;;;;2.70;1.63;;;12.90;52.90;;;;;;4981208;28;20411;-81
2021/10/24 12:16:42;;;;;;;4.73;2.17;;;13.00;53.10;;;;;;4980959;28;20419;-79
2021/10/24 12:19:19;;;;;;;4.30;2.20;;;13.00;53.20;;;;;;4980872;28;20495;-82
2021/10/24 12:22:03;;;;;;;2.90;2.07;;;13.00;52.60;;;;;;4995965;28;20490;-79
2021/10/24 12:24:40;;;;;;;5.83;3.73;;;13.00;52.80;;;;;;4980172;28;20483;-81
2021/10/24 12:27:31;;;;;;;4.40;2.87;;;13.00;52.90;;;;;;4994664;28;20439;-82
2021/10/24 12:29:58;;;;;;;7.23;4.77;;;13.10;53.10;;;;;;4980738;28;20506;-82
2021/10/24 12:32:24;;;;;;;6.83;3.20;;;13.10;52.90;;;;;;4963845;28;20424;-82
2021/10/24 12:35:04;;;;;;;4.00;2.83;;;13.10;52.70;;;;;;4964180;28;20503;-83
2021/10/24 12:37:30;;;;;;;15.23;4.63;;;13.20;53.00;;;;;;4995847;28;20181;-83
2021/10/24 12:40:20;;;;;;;4.00;2.33;;;13.20;53.00;;;;;;4982954;28;20474;-82
2021/10/24 12:43:02;;;;;;;6.47;2.80;;;13.30;53.00;;;;;;4971614;28;20435;-82
2021/10/24 12:45:28;;;;;;;4.93;2.90;;;13.30;52.90;;;;;;4993153;28;20427;-82
2021/10/24 12:47:59;;;;;;;6.53;2.13;;;13.40;52.80;;;;;;4984801;28;20416;-82
2021/10/24 12:50:34;;;;;;;4.33;2.37;;;13.40;52.90;;;;;;4984846;28;20195;-81
2021/10/24 12:53:05;;;;;;;4.17;2.67;;;13.50;53.00;;;;;;4985716;28;20411;-82
2021/10/24 12:55:31;;;;;;;8.23;2.30;;;13.50;53.00;;;;;;4986280;28;20445;-82
2021/10/24 12:58:00;;;;;;;3.77;2.40;;;13.60;53.10;;;;;;4969469;28;20466;-81
2021/10/24 13:00:27;;;;;;;4.50;2.47;;;13.60;53.30;;;;;;4989018;28;20547;-83
2021/10/24 13:02:53;;;;;;;11.53;3.33;;;13.60;52.90;;;;;;4997995;28;20427;-82
2021/10/24 13:05:19;;;;;;;4.17;2.57;;;13.60;52.80;;;;;;4979337;28;20434;-83
2021/10/24 13:07:45;;;;;;;4.37;2.30;;;13.60;53.30;;;;;;4991160;28;20169;-81
2021/10/24 13:10:10;;;;;;;2.20;1.80;;;13.60;52.80;;;;;;4987605;28;20219;-81
2021/10/24 13:12:36;;;;;;;3.57;2.97;;;13.60;52.70;;;;;;4971682;28;20196;-82
2021/10/24 13:15:02;;;;;;;5.07;3.90;;;13.60;52.30;;;;;;5003226;28;20181;-82
2021/10/24 13:17:27;;;;;;;12.43;7.10;;;13.60;53.00;;;;;;4988120;28;20187;-82
2021/10/24 13:19:56;;;;;;;5.70;3.50;;;13.70;53.10;;;;;;5007788;28;20215;-80